sensor_id;sensor_type;location;lat;lon;timestamp;P1;durP1;ratioP1;P2;durP2;ratioP2
15055;SDS011;7626;42.674;23.284;2023-04-03T00:00:44;2.90;;;2.60;;
15055;SDS011;7626;42.674;23.284;2023-04-03T00:03:12;3.53;;;3.13;;
15055;SDS011;7626;42.674;23.284;2023-04-03T00:05:42;3.13;;;2.73;;
15055;SDS011;7626;42.674;23.284;2023-04-03T00:08:10;3.63;;;2.63;;
15055;SDS011;7626;42.674;23.284;2023-04-03T00:10:37;3.33;;;2.70;;
15055;SDS011;7626;42.674;23.284;2023-04-03T00:13:03;3.40;;;2.77;;
15055;SDS011;7626;42.674;23.284;2023-04-03T00:15:30;4.77;;;2.73;;
15055;SDS011;7626;42.674;23.284;2023-04-03T00:17:58;2.60;;;2.40;;
15055;SDS011;7626;42.674;23.284;2023-04-03T00:20:42;3.23;;;2.43;;
15055;SDS011;7626;42.674;23.284;2023-04-03T00:23:09;2.73;;;2.40;;
15055;SDS011;7626;42.674;23.284;2023-04-03T00:25:37;4.03;;;2.50;;
15055;SDS011;7626;42.674;23.284;2023-04-03T00:28:04;3.70;;;2.20;;
15055;SDS011;7626;42.674;23.284;2023-04-03T00:30:30;3.63;;;2.50;;
15055;SDS011;7626;42.674;23.284;2023-04-03T00:32:58;3.83;;;2.60;;
15055;SDS011;7626;42.674;23.284;2023-04-03T00:35:25;3.20;;;2.30;;
15055;SDS011;7626;42.674;23.284;2023-04-03T00:37:53;3.37;;;2.63;;
15055;SDS011;7626;42.674;23.284;2023-04-03T00:40:22;2.87;;;2.57;;
15055;SDS011;7626;42.674;23.284;2023-04-03T00:42:51;2.70;;;2.40;;
15055;SDS011;7626;42.674;23.284;2023-04-03T00:48:20;2.83;;;2.60;;
15055;SDS011;7626;42.674;23.284;2023-04-03T00:50:46;3.37;;;3.07;;
15055;SDS011;7626;42.674;23.284;2023-04-03T00:53:14;3.23;;;2.90;;
15055;SDS011;7626;42.674;23.284;2023-04-03T00:55:42;3.77;;;2.70;;
15055;SDS011;7626;42.674;23.284;2023-04-03T00:58:10;3.13;;;2.50;;
15055;SDS011;7626;42.674;23.284;2023-04-03T01:00:37;3.20;;;2.70;;
15055;SDS011;7626;42.674;23.284;2023-04-03T01:03:05;2.77;;;2.47;;
15055;SDS011;7626;42.674;23.284;2023-04-03T01:05:38;3.13;;;2.50;;
15055;SDS011;7626;42.674;23.284;2023-04-03T01:08:06;3.20;;;2.33;;
15055;SDS011;7626;42.674;23.284;2023-04-03T01:10:33;3.00;;;2.30;;
15055;SDS011;7626;42.674;23.284;2023-04-03T01:12:59;2.90;;;2.30;;
15055;SDS011;7626;42.674;23.284;2023-04-03T01:15:26;3.23;;;2.37;;
15055;SDS011;7626;42.674;23.284;2023-04-03T01:17:57;4.47;;;2.40;;
15055;SDS011;7626;42.674;23.284;2023-04-03T01:20:37;2.70;;;2.33;;
15055;SDS011;7626;42.674;23.284;2023-04-03T01:23:14;3.87;;;2.30;;
15055;SDS011;7626;42.674;23.284;2023-04-03T01:25:43;3.20;;;2.30;;
15055;SDS011;7626;42.674;23.284;2023-04-03T01:28:11;3.27;;;2.33;;
15055;SDS011;7626;42.674;23.284;2023-04-03T01:30:39;2.37;;;2.17;;
15055;SDS011;7626;42.674;23.284;2023-04-03T01:33:10;3.77;;;2.50;;
15055;SDS011;7626;42.674;23.284;2023-04-03T01:35:37;2.90;;;2.53;;
15055;SDS011;7626;42.674;23.284;2023-04-03T01:38:05;2.53;;;2.33;;
15055;SDS011;7626;42.674;23.284;2023-04-03T01:40:31;3.53;;;2.53;;
15055;SDS011;7626;42.674;23.284;2023-04-03T01:42:58;4.13;;;2.60;;
15055;SDS011;7626;42.674;23.284;2023-04-03T01:45:25;3.10;;;2.47;;
15055;SDS011;7626;42.674;23.284;2023-04-03T01:47:51;3.70;;;2.73;;
15055;SDS011;7626;42.674;23.284;2023-04-03T01:50:20;4.93;;;3.10;;
15055;SDS011;7626;42.674;23.284;2023-04-03T01:52:48;3.93;;;3.27;;
15055;SDS011;7626;42.674;23.284;2023-04-03T01:55:15;5.53;;;3.20;;
15055;SDS011;7626;42.674;23.284;2023-04-03T01:57:41;4.47;;;3.33;;
15055;SDS011;7626;42.674;23.284;2023-04-03T02:00:09;6.47;;;3.30;;
15055;SDS011;7626;42.674;23.284;2023-04-03T02:02:36;4.20;;;3.47;;
15055;SDS011;7626;42.674;23.284;2023-04-03T02:05:03;3.63;;;3.10;;
15055;SDS011;7626;42.674;23.284;2023-04-03T02:07:30;4.77;;;3.30;;
15055;SDS011;7626;42.674;23.284;2023-04-03T02:09:58;5.33;;;3.63;;
15055;SDS011;7626;42.674;23.284;2023-04-03T02:12:27;5.07;;;3.93;;
15055;SDS011;7626;42.674;23.284;2023-04-03T02:14:53;5.13;;;3.80;;
15055;SDS011;7626;42.674;23.284;2023-04-03T02:17:21;4.37;;;3.50;;
15055;SDS011;7626;42.674;23.284;2023-04-03T02:19:49;6.10;;;4.37;;
15055;SDS011;7626;42.674;23.284;2023-04-03T02:22:17;12.53;;;4.77;;
15055;SDS011;7626;42.674;23.284;2023-04-03T02:24:45;6.13;;;4.60;;
15055;SDS011;7626;42.674;23.284;2023-04-03T02:27:12;5.80;;;5.30;;
15055;SDS011;7626;42.674;23.284;2023-04-03T02:29:38;7.07;;;5.40;;
15055;SDS011;7626;42.674;23.284;2023-04-03T02:32:05;6.93;;;5.33;;
15055;SDS011;7626;42.674;23.284;2023-04-03T02:34:33;7.10;;;5.40;;
15055;SDS011;7626;42.674;23.284;2023-04-03T02:36:59;7.43;;;5.00;;
15055;SDS011;7626;42.674;23.284;2023-04-03T02:39:26;8.23;;;5.00;;
15055;SDS011;7626;42.674;23.284;2023-04-03T02:41:54;5.43;;;4.47;;
15055;SDS011;7626;42.674;23.284;2023-04-03T02:44:21;6.87;;;4.53;;
15055;SDS011;7626;42.674;23.284;2023-04-03T02:46:49;5.13;;;4.10;;
15055;SDS011;7626;42.674;23.284;2023-04-03T02:49:17;4.87;;;3.83;;
15055;SDS011;7626;42.674;23.284;2023-04-03T02:51:45;4.87;;;4.20;;
15055;SDS011;7626;42.674;23.284;2023-04-03T02:54:13;7.60;;;3.80;;
15055;SDS011;7626;42.674;23.284;2023-04-03T02:56:39;6.17;;;3.97;;
15055;SDS011;7626;42.674;23.284;2023-04-03T02:59:07;5.20;;;3.90;;
15055;SDS011;7626;42.674;23.284;2023-04-03T03:01:34;5.27;;;4.23;;
15055;SDS011;7626;42.674;23.284;2023-04-03T03:04:01;4.73;;;3.80;;
15055;SDS011;7626;42.674;23.284;2023-04-03T03:06:28;4.30;;;3.80;;
15055;SDS011;7626;42.674;23.284;2023-04-03T03:08:56;6.43;;;4.30;;
15055;SDS011;7626;42.674;23.284;2023-04-03T03:11:24;5.40;;;3.83;;
15055;SDS011;7626;42.674;23.284;2023-04-03T03:13:52;6.83;;;3.90;;
15055;SDS011;7626;42.674;23.284;2023-04-03T03:16:21;6.57;;;3.90;;
15055;SDS011;7626;42.674;23.284;2023-04-03T03:18:48;5.13;;;4.23;;
15055;SDS011;7626;42.674;23.284;2023-04-03T03:21:15;8.33;;;7.53;;
15055;SDS011;7626;42.674;23.284;2023-04-03T03:23:42;6.13;;;5.17;;
15055;SDS011;7626;42.674;23.284;2023-04-03T03:26:09;4.77;;;4.23;;
15055;SDS011;7626;42.674;23.284;2023-04-03T03:28:37;4.67;;;4.27;;
15055;SDS011;7626;42.674;23.284;2023-04-03T03:31:05;4.47;;;4.07;;
15055;SDS011;7626;42.674;23.284;2023-04-03T03:33:35;4.53;;;3.97;;
15055;SDS011;7626;42.674;23.284;2023-04-03T03:36:03;6.00;;;3.80;;
15055;SDS011;7626;42.674;23.284;2023-04-03T03:38:31;4.97;;;4.00;;
15055;SDS011;7626;42.674;23.284;2023-04-03T03:40:58;5.80;;;4.37;;
15055;SDS011;7626;42.674;23.284;2023-04-03T03:43:24;5.07;;;4.20;;
15055;SDS011;7626;42.674;23.284;2023-04-03T03:45:51;6.83;;;4.30;;
15055;SDS011;7626;42.674;23.284;2023-04-03T03:48:18;6.77;;;3.97;;
15055;SDS011;7626;42.674;23.284;2023-04-03T03:50:46;6.43;;;4.10;;
15055;SDS011;7626;42.674;23.284;2023-04-03T03:53:14;9.40;;;3.80;;
15055;SDS011;7626;42.674;23.284;2023-04-03T03:55:41;5.23;;;4.20;;
15055;SDS011;7626;42.674;23.284;2023-04-03T03:58:09;7.70;;;4.70;;
15055;SDS011;7626;42.674;23.284;2023-04-03T04:00:38;5.27;;;4.77;;
15055;SDS011;7626;42.674;23.284;2023-04-03T04:03:06;5.40;;;4.90;;
15055;SDS011;7626;42.674;23.284;2023-04-03T04:05:32;6.87;;;5.20;;
15055;SDS011;7626;42.674;23.284;2023-04-03T04:08:00;5.67;;;5.07;;
15055;SDS011;7626;42.674;23.284;2023-04-03T04:10:28;9.70;;;5.43;;
15055;SDS011;7626;42.674;23.284;2023-04-03T04:12:54;6.80;;;5.97;;
15055;SDS011;7626;42.674;23.284;2023-04-03T04:15:21;9.23;;;5.83;;
15055;SDS011;7626;42.674;23.284;2023-04-03T04:17:49;8.43;;;5.70;;
15055;SDS011;7626;42.674;23.284;2023-04-03T04:20:17;5.90;;;4.97;;
15055;SDS011;7626;42.674;23.284;2023-04-03T04:22:45;7.30;;;5.27;;
15055;SDS011;7626;42.674;23.284;2023-04-03T04:25:13;4.80;;;4.30;;
15055;SDS011;7626;42.674;23.284;2023-04-03T04:27:39;7.10;;;4.80;;
15055;SDS011;7626;42.674;23.284;2023-04-03T04:30:08;8.27;;;5.00;;
15055;SDS011;7626;42.674;23.284;2023-04-03T04:32:36;7.27;;;4.87;;
15055;SDS011;7626;42.674;23.284;2023-04-03T04:35:03;6.30;;;5.10;;
15055;SDS011;7626;42.674;23.284;2023-04-03T04:37:30;5.37;;;4.77;;
15055;SDS011;7626;42.674;23.284;2023-04-03T04:39:56;8.00;;;5.37;;
15055;SDS011;7626;42.674;23.284;2023-04-03T04:42:24;6.60;;;4.67;;
15055;SDS011;7626;42.674;23.284;2023-04-03T04:44:52;6.80;;;4.90;;
15055;SDS011;7626;42.674;23.284;2023-04-03T04:47:20;8.00;;;4.90;;
15055;SDS011;7626;42.674;23.284;2023-04-03T04:49:48;9.07;;;5.90;;
15055;SDS011;7626;42.674;23.284;2023-04-03T04:52:17;6.43;;;5.03;;
15055;SDS011;7626;42.674;23.284;2023-04-03T04:54:44;7.70;;;5.67;;
15055;SDS011;7626;42.674;23.284;2023-04-03T04:57:14;8.37;;;5.30;;
15055;SDS011;7626;42.674;23.284;2023-04-03T04:59:42;9.27;;;6.60;;
15055;SDS011;7626;42.674;23.284;2023-04-03T05:02:08;10.90;;;6.20;;
15055;SDS011;7626;42.674;23.284;2023-04-03T05:04:35;9.97;;;7.77;;
15055;SDS011;7626;42.674;23.284;2023-04-03T05:07:01;9.40;;;8.37;;
15055;SDS011;7626;42.674;23.284;2023-04-03T05:09:28;10.77;;;8.53;;
15055;SDS011;7626;42.674;23.284;2023-04-03T05:11:54;13.47;;;9.00;;
15055;SDS011;7626;42.674;23.284;2023-04-03T05:14:21;13.27;;;9.73;;
15055;SDS011;7626;42.674;23.284;2023-04-03T05:16:49;11.10;;;9.10;;
15055;SDS011;7626;42.674;23.284;2023-04-03T05:19:18;12.57;;;8.13;;
15055;SDS011;7626;42.674;23.284;2023-04-03T05:21:44;14.30;;;10.10;;
15055;SDS011;7626;42.674;23.284;2023-04-03T05:24:11;13.07;;;10.77;;
15055;SDS011;7626;42.674;23.284;2023-04-03T05:26:37;34.03;;;11.23;;
15055;SDS011;7626;42.674;23.284;2023-04-03T05:29:04;18.73;;;10.27;;
15055;SDS011;7626;42.674;23.284;2023-04-03T05:31:30;24.30;;;11.13;;
15055;SDS011;7626;42.674;23.284;2023-04-03T05:33:58;14.63;;;9.63;;
15055;SDS011;7626;42.674;23.284;2023-04-03T05:36:25;13.00;;;9.27;;
15055;SDS011;7626;42.674;23.284;2023-04-03T05:38:51;13.67;;;10.97;;
15055;SDS011;7626;42.674;23.284;2023-04-03T05:41:18;14.47;;;11.77;;
15055;SDS011;7626;42.674;23.284;2023-04-03T05:43:45;16.03;;;12.30;;
15055;SDS011;7626;42.674;23.284;2023-04-03T05:46:13;16.87;;;14.30;;
15055;SDS011;7626;42.674;23.284;2023-04-03T05:48:40;22.47;;;17.43;;
15055;SDS011;7626;42.674;23.284;2023-04-03T05:51:09;24.23;;;19.83;;
15055;SDS011;7626;42.674;23.284;2023-04-03T05:53:39;29.87;;;25.10;;
15055;SDS011;7626;42.674;23.284;2023-04-03T05:56:07;31.17;;;26.20;;
15055;SDS011;7626;42.674;23.284;2023-04-03T05:58:34;31.50;;;28.20;;
15055;SDS011;7626;42.674;23.284;2023-04-03T06:01:00;32.50;;;26.30;;
15055;SDS011;7626;42.674;23.284;2023-04-03T06:03:27;26.47;;;23.67;;
15055;SDS011;7626;42.674;23.284;2023-04-03T06:05:53;28.67;;;23.03;;
15055;SDS011;7626;42.674;23.284;2023-04-03T06:08:21;32.07;;;23.80;;
15055;SDS011;7626;42.674;23.284;2023-04-03T06:10:48;24.40;;;19.40;;
15055;SDS011;7626;42.674;23.284;2023-04-03T06:13:15;21.40;;;16.17;;
15055;SDS011;7626;42.674;23.284;2023-04-03T06:15:42;18.90;;;14.83;;
15055;SDS011;7626;42.674;23.284;2023-04-03T06:18:09;16.93;;;13.60;;
15055;SDS011;7626;42.674;23.284;2023-04-03T06:20:35;19.83;;;13.67;;
15055;SDS011;7626;42.674;23.284;2023-04-03T06:23:02;16.87;;;13.00;;
15055;SDS011;7626;42.674;23.284;2023-04-03T06:25:30;17.80;;;13.10;;
15055;SDS011;7626;42.674;23.284;2023-04-03T06:27:57;18.47;;;12.73;;
15055;SDS011;7626;42.674;23.284;2023-04-03T06:30:23;19.17;;;13.97;;
15055;SDS011;7626;42.674;23.284;2023-04-03T06:32:50;25.87;;;15.80;;
15055;SDS011;7626;42.674;23.284;2023-04-03T06:35:17;19.07;;;15.07;;
15055;SDS011;7626;42.674;23.284;2023-04-03T06:37:43;20.17;;;14.30;;
15055;SDS011;7626;42.674;23.284;2023-04-03T06:40:12;22.27;;;14.57;;
15055;SDS011;7626;42.674;23.284;2023-04-03T06:42:43;13.77;;;11.63;;
15055;SDS011;7626;42.674;23.284;2023-04-03T06:45:09;11.33;;;8.67;;
15055;SDS011;7626;42.674;23.284;2023-04-03T06:47:36;9.63;;;7.47;;
15055;SDS011;7626;42.674;23.284;2023-04-03T06:50:03;9.03;;;7.00;;
15055;SDS011;7626;42.674;23.284;2023-04-03T06:52:31;9.00;;;6.10;;
15055;SDS011;7626;42.674;23.284;2023-04-03T06:54:58;8.60;;;6.43;;
15055;SDS011;7626;42.674;23.284;2023-04-03T06:57:25;12.77;;;7.67;;
15055;SDS011;7626;42.674;23.284;2023-04-03T06:59:53;13.00;;;9.33;;
15055;SDS011;7626;42.674;23.284;2023-04-03T07:02:19;18.93;;;10.00;;
15055;SDS011;7626;42.674;23.284;2023-04-03T07:04:46;14.47;;;9.57;;
15055;SDS011;7626;42.674;23.284;2023-04-03T07:07:13;14.03;;;9.03;;
15055;SDS011;7626;42.674;23.284;2023-04-03T07:09:40;12.20;;;6.80;;
15055;SDS011;7626;42.674;23.284;2023-04-03T07:12:07;9.63;;;5.80;;
15055;SDS011;7626;42.674;23.284;2023-04-03T07:14:33;8.50;;;5.23;;
15055;SDS011;7626;42.674;23.284;2023-04-03T07:17:02;8.00;;;4.87;;
15055;SDS011;7626;42.674;23.284;2023-04-03T07:19:28;7.83;;;5.17;;
15055;SDS011;7626;42.674;23.284;2023-04-03T07:21:55;6.40;;;4.80;;
15055;SDS011;7626;42.674;23.284;2023-04-03T07:24:22;5.67;;;4.00;;
15055;SDS011;7626;42.674;23.284;2023-04-03T07:26:49;7.30;;;4.33;;
15055;SDS011;7626;42.674;23.284;2023-04-03T07:29:15;4.50;;;3.83;;
15055;SDS011;7626;42.674;23.284;2023-04-03T07:31:42;7.97;;;4.07;;
15055;SDS011;7626;42.674;23.284;2023-04-03T07:34:11;5.27;;;4.30;;
15055;SDS011;7626;42.674;23.284;2023-04-03T07:36:37;5.30;;;4.13;;
15055;SDS011;7626;42.674;23.284;2023-04-03T07:39:04;6.33;;;3.93;;
15055;SDS011;7626;42.674;23.284;2023-04-03T07:41:31;5.37;;;4.23;;
15055;SDS011;7626;42.674;23.284;2023-04-03T07:43:58;8.70;;;3.97;;
15055;SDS011;7626;42.674;23.284;2023-04-03T07:46:25;5.90;;;3.83;;
15055;SDS011;7626;42.674;23.284;2023-04-03T07:48:52;4.97;;;4.00;;
15055;SDS011;7626;42.674;23.284;2023-04-03T07:51:20;5.67;;;4.00;;
15055;SDS011;7626;42.674;23.284;2023-04-03T07:53:46;4.47;;;3.67;;
15055;SDS011;7626;42.674;23.284;2023-04-03T07:56:13;5.03;;;3.90;;
15055;SDS011;7626;42.674;23.284;2023-04-03T07:58:40;6.20;;;4.03;;
15055;SDS011;7626;42.674;23.284;2023-04-03T08:01:06;5.17;;;3.90;;
15055;SDS011;7626;42.674;23.284;2023-04-03T08:03:33;6.63;;;4.30;;
15055;SDS011;7626;42.674;23.284;2023-04-03T08:06:01;6.30;;;4.97;;
15055;SDS011;7626;42.674;23.284;2023-04-03T08:08:29;6.27;;;4.87;;
15055;SDS011;7626;42.674;23.284;2023-04-03T08:10:58;10.13;;;5.83;;
15055;SDS011;7626;42.674;23.284;2023-04-03T08:13:24;10.33;;;6.33;;
15055;SDS011;7626;42.674;23.284;2023-04-03T08:15:51;8.47;;;6.90;;
15055;SDS011;7626;42.674;23.284;2023-04-03T08:18:17;9.90;;;6.93;;
15055;SDS011;7626;42.674;23.284;2023-04-03T08:20:46;8.87;;;7.87;;
15055;SDS011;7626;42.674;23.284;2023-04-03T08:23:13;9.70;;;7.47;;
15055;SDS011;7626;42.674;23.284;2023-04-03T08:25:42;8.77;;;7.73;;
15055;SDS011;7626;42.674;23.284;2023-04-03T08:28:09;14.53;;;8.40;;
15055;SDS011;7626;42.674;23.284;2023-04-03T08:30:38;9.23;;;7.53;;
15055;SDS011;7626;42.674;23.284;2023-04-03T08:33:04;8.33;;;7.00;;
15055;SDS011;7626;42.674;23.284;2023-04-03T08:35:31;8.13;;;7.00;;
15055;SDS011;7626;42.674;23.284;2023-04-03T08:37:57;8.73;;;6.63;;
15055;SDS011;7626;42.674;23.284;2023-04-03T08:40:24;7.43;;;6.67;;
15055;SDS011;7626;42.674;23.284;2023-04-03T08:42:53;8.27;;;6.80;;
15055;SDS011;7626;42.674;23.284;2023-04-03T08:45:25;10.87;;;8.63;;
15055;SDS011;7626;42.674;23.284;2023-04-03T08:47:53;12.43;;;9.73;;
15055;SDS011;7626;42.674;23.284;2023-04-03T08:50:23;11.20;;;9.47;;
15055;SDS011;7626;42.674;23.284;2023-04-03T08:52:53;10.57;;;9.50;;
15055;SDS011;7626;42.674;23.284;2023-04-03T08:55:22;11.40;;;9.97;;
15055;SDS011;7626;42.674;23.284;2023-04-03T08:57:50;13.07;;;10.23;;
15055;SDS011;7626;42.674;23.284;2023-04-03T09:00:20;11.87;;;10.07;;
15055;SDS011;7626;42.674;23.284;2023-04-03T09:02:49;18.53;;;11.33;;
15055;SDS011;7626;42.674;23.284;2023-04-03T09:05:16;12.83;;;10.60;;
15055;SDS011;7626;42.674;23.284;2023-04-03T09:07:44;13.80;;;10.33;;
15055;SDS011;7626;42.674;23.284;2023-04-03T09:10:13;15.80;;;11.40;;
15055;SDS011;7626;42.674;23.284;2023-04-03T09:12:41;18.70;;;13.07;;
15055;SDS011;7626;42.674;23.284;2023-04-03T09:15:10;15.67;;;12.93;;
15055;SDS011;7626;42.674;23.284;2023-04-03T09:17:44;14.70;;;12.33;;
15055;SDS011;7626;42.674;23.284;2023-04-03T09:20:16;16.13;;;12.60;;
15055;SDS011;7626;42.674;23.284;2023-04-03T09:22:45;17.57;;;13.23;;
15055;SDS011;7626;42.674;23.284;2023-04-03T09:25:12;14.50;;;12.53;;
15055;SDS011;7626;42.674;23.284;2023-04-03T09:27:39;16.93;;;12.57;;
15055;SDS011;7626;42.674;23.284;2023-04-03T09:30:08;15.43;;;12.90;;
15055;SDS011;7626;42.674;23.284;2023-04-03T09:32:38;13.50;;;12.10;;
15055;SDS011;7626;42.674;23.284;2023-04-03T09:35:10;14.27;;;11.93;;
15055;SDS011;7626;42.674;23.284;2023-04-03T09:37:43;13.47;;;11.20;;
15055;SDS011;7626;42.674;23.284;2023-04-03T09:40:30;13.83;;;10.33;;
15055;SDS011;7626;42.674;23.284;2023-04-03T09:42:57;12.80;;;9.87;;
15055;SDS011;7626;42.674;23.284;2023-04-03T09:45:25;10.77;;;9.43;;
15055;SDS011;7626;42.674;23.284;2023-04-03T09:48:03;10.67;;;8.30;;
15055;SDS011;7626;42.674;23.284;2023-04-03T09:50:34;9.17;;;6.53;;
15055;SDS011;7626;42.674;23.284;2023-04-03T09:53:04;7.00;;;6.30;;
15055;SDS011;7626;42.674;23.284;2023-04-03T09:55:31;6.37;;;5.77;;
15055;SDS011;7626;42.674;23.284;2023-04-03T09:57:57;7.10;;;5.53;;
15055;SDS011;7626;42.674;23.284;2023-04-03T10:00:25;8.93;;;5.60;;
15055;SDS011;7626;42.674;23.284;2023-04-03T10:02:53;6.63;;;5.57;;
15055;SDS011;7626;42.674;23.284;2023-04-03T10:05:28;5.90;;;5.30;;
15055;SDS011;7626;42.674;23.284;2023-04-03T10:08:08;6.57;;;4.87;;
15055;SDS011;7626;42.674;23.284;2023-04-03T10:10:35;5.27;;;4.37;;
15055;SDS011;7626;42.674;23.284;2023-04-03T10:13:05;6.20;;;4.53;;
15055;SDS011;7626;42.674;23.284;2023-04-03T10:15:34;5.37;;;4.77;;
15055;SDS011;7626;42.674;23.284;2023-04-03T10:18:02;6.13;;;4.80;;
15055;SDS011;7626;42.674;23.284;2023-04-03T10:20:34;6.57;;;4.73;;
15055;SDS011;7626;42.674;23.284;2023-04-03T10:23:17;5.83;;;4.60;;
15055;SDS011;7626;42.674;23.284;2023-04-03T10:25:47;5.53;;;4.20;;
15055;SDS011;7626;42.674;23.284;2023-04-03T10:28:17;4.47;;;3.60;;
15055;SDS011;7626;42.674;23.284;2023-04-03T10:30:47;4.90;;;3.80;;
15055;SDS011;7626;42.674;23.284;2023-04-03T10:33:20;5.90;;;4.20;;
15055;SDS011;7626;42.674;23.284;2023-04-03T10:35:52;4.87;;;3.80;;
15055;SDS011;7626;42.674;23.284;2023-04-03T10:38:25;5.30;;;4.10;;
15055;SDS011;7626;42.674;23.284;2023-04-03T10:40:57;5.47;;;3.70;;
15055;SDS011;7626;42.674;23.284;2023-04-03T10:43:28;5.50;;;4.40;;
15055;SDS011;7626;42.674;23.284;2023-04-03T10:46:00;5.37;;;4.57;;
15055;SDS011;7626;42.674;23.284;2023-04-03T10:48:40;8.53;;;5.00;;
15055;SDS011;7626;42.674;23.284;2023-04-03T10:51:15;5.00;;;4.50;;
15055;SDS011;7626;42.674;23.284;2023-04-03T10:53:49;7.00;;;4.20;;
15055;SDS011;7626;42.674;23.284;2023-04-03T10:56:18;4.57;;;3.73;;
15055;SDS011;7626;42.674;23.284;2023-04-03T10:58:48;3.77;;;3.37;;
15055;SDS011;7626;42.674;23.284;2023-04-03T11:01:16;3.60;;;3.30;;
15055;SDS011;7626;42.674;23.284;2023-04-03T11:03:45;5.17;;;3.43;;
15055;SDS011;7626;42.674;23.284;2023-04-03T11:06:13;3.90;;;3.30;;
15055;SDS011;7626;42.674;23.284;2023-04-03T11:08:42;5.40;;;3.30;;
15055;SDS011;7626;42.674;23.284;2023-04-03T11:11:13;3.83;;;2.70;;
15055;SDS011;7626;42.674;23.284;2023-04-03T11:13:41;4.93;;;2.67;;
15055;SDS011;7626;42.674;23.284;2023-04-03T11:16:09;4.40;;;2.93;;
15055;SDS011;7626;42.674;23.284;2023-04-03T11:18:41;4.03;;;2.97;;
15055;SDS011;7626;42.674;23.284;2023-04-03T11:21:11;3.80;;;2.70;;
15055;SDS011;7626;42.674;23.284;2023-04-03T11:23:39;3.90;;;2.97;;
15055;SDS011;7626;42.674;23.284;2023-04-03T11:26:10;3.13;;;2.83;;
15055;SDS011;7626;42.674;23.284;2023-04-03T11:28:38;3.90;;;3.17;;
15055;SDS011;7626;42.674;23.284;2023-04-03T11:31:09;3.73;;;2.63;;
15055;SDS011;7626;42.674;23.284;2023-04-03T11:33:41;3.30;;;3.00;;
15055;SDS011;7626;42.674;23.284;2023-04-03T11:36:12;3.33;;;3.03;;
15055;SDS011;7626;42.674;23.284;2023-04-03T11:38:44;4.40;;;3.43;;
15055;SDS011;7626;42.674;23.284;2023-04-03T11:41:12;3.23;;;2.93;;
15055;SDS011;7626;42.674;23.284;2023-04-03T11:43:41;4.57;;;3.03;;
15055;SDS011;7626;42.674;23.284;2023-04-03T11:46:08;3.50;;;3.17;;
15055;SDS011;7626;42.674;23.284;2023-04-03T11:48:42;3.47;;;3.13;;
15055;SDS011;7626;42.674;23.284;2023-04-03T11:53:51;3.67;;;2.90;;
15055;SDS011;7626;42.674;23.284;2023-04-03T11:56:28;3.57;;;3.27;;
15055;SDS011;7626;42.674;23.284;2023-04-03T12:01:45;5.27;;;3.30;;
15055;SDS011;7626;42.674;23.284;2023-04-03T12:04:13;4.50;;;3.90;;
15055;SDS011;7626;42.674;23.284;2023-04-03T12:06:51;3.13;;;2.83;;
15055;SDS011;7626;42.674;23.284;2023-04-03T12:09:23;4.93;;;3.53;;
15055;SDS011;7626;42.674;23.284;2023-04-03T12:11:51;5.40;;;3.60;;
15055;SDS011;7626;42.674;23.284;2023-04-03T12:14:18;4.07;;;3.63;;
15055;SDS011;7626;42.674;23.284;2023-04-03T12:16:50;4.23;;;3.70;;
15055;SDS011;7626;42.674;23.284;2023-04-03T12:19:27;5.20;;;3.63;;
15055;SDS011;7626;42.674;23.284;2023-04-03T12:22:12;5.03;;;3.77;;
15055;SDS011;7626;42.674;23.284;2023-04-03T12:24:39;5.43;;;3.70;;
15055;SDS011;7626;42.674;23.284;2023-04-03T12:27:18;4.77;;;3.80;;
15055;SDS011;7626;42.674;23.284;2023-04-03T12:29:47;5.60;;;3.80;;
15055;SDS011;7626;42.674;23.284;2023-04-03T12:32:20;3.63;;;3.30;;
15055;SDS011;7626;42.674;23.284;2023-04-03T12:34:57;3.90;;;3.50;;
15055;SDS011;7626;42.674;23.284;2023-04-03T12:37:37;4.67;;;3.60;;
15055;SDS011;7626;42.674;23.284;2023-04-03T12:40:09;4.70;;;3.70;;
15055;SDS011;7626;42.674;23.284;2023-04-03T12:42:48;5.53;;;3.80;;
15055;SDS011;7626;42.674;23.284;2023-04-03T12:45:22;3.43;;;3.13;;
15055;SDS011;7626;42.674;23.284;2023-04-03T12:47:50;3.83;;;3.53;;
15055;SDS011;7626;42.674;23.284;2023-04-03T12:50:19;4.10;;;3.47;;
15055;SDS011;7626;42.674;23.284;2023-04-03T12:52:50;4.17;;;3.30;;
15055;SDS011;7626;42.674;23.284;2023-04-03T12:55:19;3.70;;;3.40;;
15055;SDS011;7626;42.674;23.284;2023-04-03T12:57:45;5.10;;;3.40;;
15055;SDS011;7626;42.674;23.284;2023-04-03T13:00:25;3.63;;;3.10;;
15055;SDS011;7626;42.674;23.284;2023-04-03T13:02:54;4.50;;;3.37;;
15055;SDS011;7626;42.674;23.284;2023-04-03T13:05:21;4.40;;;3.23;;
15055;SDS011;7626;42.674;23.284;2023-04-03T13:07:48;4.57;;;3.37;;
15055;SDS011;7626;42.674;23.284;2023-04-03T13:10:16;5.13;;;3.60;;
15055;SDS011;7626;42.674;23.284;2023-04-03T13:12:46;4.30;;;3.50;;
15055;SDS011;7626;42.674;23.284;2023-04-03T13:15:14;4.40;;;3.67;;
15055;SDS011;7626;42.674;23.284;2023-04-03T13:17:41;4.13;;;3.37;;
15055;SDS011;7626;42.674;23.284;2023-04-03T13:20:14;3.90;;;3.50;;
15055;SDS011;7626;42.674;23.284;2023-04-03T13:22:45;6.00;;;3.83;;
15055;SDS011;7626;42.674;23.284;2023-04-03T13:25:13;4.80;;;4.27;;
15055;SDS011;7626;42.674;23.284;2023-04-03T13:27:41;4.63;;;3.70;;
15055;SDS011;7626;42.674;23.284;2023-04-03T13:33:02;4.57;;;3.53;;
15055;SDS011;7626;42.674;23.284;2023-04-03T13:35:32;6.10;;;3.77;;
15055;SDS011;7626;42.674;23.284;2023-04-03T13:38:00;4.00;;;3.60;;
15055;SDS011;7626;42.674;23.284;2023-04-03T13:40:27;4.63;;;3.97;;
15055;SDS011;7626;42.674;23.284;2023-04-03T13:43:04;4.00;;;3.70;;
15055;SDS011;7626;42.674;23.284;2023-04-03T13:45:31;4.93;;;3.93;;
15055;SDS011;7626;42.674;23.284;2023-04-03T13:48:07;5.90;;;4.37;;
15055;SDS011;7626;42.674;23.284;2023-04-03T13:50:48;4.97;;;3.97;;
15055;SDS011;7626;42.674;23.284;2023-04-03T13:53:15;3.77;;;3.37;;
15055;SDS011;7626;42.674;23.284;2023-04-03T13:55:51;4.30;;;3.77;;
15055;SDS011;7626;42.674;23.284;2023-04-03T13:58:21;4.53;;;3.90;;
15055;SDS011;7626;42.674;23.284;2023-04-03T14:00:49;4.37;;;3.90;;
15055;SDS011;7626;42.674;23.284;2023-04-03T14:03:17;4.40;;;3.73;;
15055;SDS011;7626;42.674;23.284;2023-04-03T14:05:46;4.13;;;3.67;;
15055;SDS011;7626;42.674;23.284;2023-04-03T14:08:12;3.90;;;3.50;;
15055;SDS011;7626;42.674;23.284;2023-04-03T14:10:39;4.23;;;3.73;;
15055;SDS011;7626;42.674;23.284;2023-04-03T14:13:08;4.90;;;4.20;;
15055;SDS011;7626;42.674;23.284;2023-04-03T14:15:35;5.03;;;3.67;;
15055;SDS011;7626;42.674;23.284;2023-04-03T14:18:01;3.90;;;3.43;;
15055;SDS011;7626;42.674;23.284;2023-04-03T14:20:28;3.73;;;3.40;;
15055;SDS011;7626;42.674;23.284;2023-04-03T14:22:56;4.20;;;3.57;;
15055;SDS011;7626;42.674;23.284;2023-04-03T14:25:23;4.83;;;3.30;;
15055;SDS011;7626;42.674;23.284;2023-04-03T14:27:51;3.77;;;3.47;;
15055;SDS011;7626;42.674;23.284;2023-04-03T14:30:19;3.67;;;3.37;;
15055;SDS011;7626;42.674;23.284;2023-04-03T14:32:46;3.93;;;3.60;;
15055;SDS011;7626;42.674;23.284;2023-04-03T14:35:13;3.50;;;3.20;;
15055;SDS011;7626;42.674;23.284;2023-04-03T14:37:39;4.67;;;4.17;;
15055;SDS011;7626;42.674;23.284;2023-04-03T14:40:11;16.27;;;4.70;;
15055;SDS011;7626;42.674;23.284;2023-04-03T14:42:38;18.07;;;4.87;;
15055;SDS011;7626;42.674;23.284;2023-04-03T14:45:05;15.00;;;4.33;;
15055;SDS011;7626;42.674;23.284;2023-04-03T14:47:32;11.13;;;3.67;;
15055;SDS011;7626;42.674;23.284;2023-04-03T14:49:59;10.50;;;4.13;;
15055;SDS011;7626;42.674;23.284;2023-04-03T14:52:26;9.10;;;3.53;;
15055;SDS011;7626;42.674;23.284;2023-04-03T14:54:53;9.40;;;3.70;;
15055;SDS011;7626;42.674;23.284;2023-04-03T14:57:21;7.93;;;4.03;;
15055;SDS011;7626;42.674;23.284;2023-04-03T14:59:50;7.17;;;3.70;;
15055;SDS011;7626;42.674;23.284;2023-04-03T15:02:27;8.53;;;3.83;;